Webcam

Mit webcam er opstillet i Qinngorput og har retning mod den sydlige del af Nuuk. Billedet opdateres automatisk.

BGGH 230850Z 36004KT 330V030 9999 BKN034 M00/M02 Q1002